Toronto, Iowa
Current Conditions -  °F | °C
As of 3:52 AM on Wednesday 22 Oct 2014 (Local Time) from KDVN Reporting Station
Clear Clear  
Wind Chill: 32°   Ceiling: Unl
Heat Index: 36°   Visibility: 10mi
Dew Point: 32°   Wind: 5mph
Humidity: 86%   Direction: 100°E
Pressure: 30.29"   Gusts: NA
Location:  41.8735°N, 90.8033°W
Report Text: KDVN 220852Z AUTO 10004KT 10SM CLR 02/00 A3029 RMK AO2 SLP260 T00220000 53008 TSNO
Loading
Personal Weather Stations






























Interactive Weather Map
Tropical Storm Tracking
New forecast layout! Learn more

10-Day Weather Forecast

Advertisements
Track Severe Weather on mobile